createdAt,value
2019-01-20T00:00:41.203Z,87.80
2019-01-20T00:03:11.779Z,88.00
2019-01-20T00:05:42.055Z,88.20
2019-01-20T00:08:12.739Z,88.40
2019-01-20T00:10:43.056Z,88.10
2019-01-20T00:13:13.000Z,88.10
2019-01-20T00:15:44.654Z,87.90
2019-01-20T00:18:14.863Z,88.70
2019-01-20T00:20:45.489Z,88.90
2019-01-20T00:23:15.441Z,89.30
2019-01-20T00:25:45.957Z,89.10
2019-01-20T00:28:16.539Z,89.20
2019-01-20T00:30:47.167Z,89.30
2019-01-20T00:33:17.053Z,89.50
2019-01-20T00:35:47.613Z,89.90
2019-01-20T00:38:17.516Z,90.00
2019-01-20T00:40:47.731Z,90.00
2019-01-20T00:43:18.299Z,90.10
2019-01-20T00:45:48.173Z,90.50
2019-01-20T00:48:18.730Z,91.00
2019-01-20T00:50:49.223Z,91.30
2019-01-20T00:53:19.456Z,91.50
2019-01-20T00:55:49.647Z,91.70
2019-01-20T00:58:19.866Z,91.70
2019-01-20T01:00:51.661Z,91.40
2019-01-20T01:03:22.321Z,91.50
2019-01-20T01:05:52.787Z,92.10
2019-01-20T01:08:23.125Z,90.80
2019-01-20T01:10:53.377Z,90.40
2019-01-20T01:13:24.185Z,90.80
2019-01-20T01:15:54.846Z,90.70
2019-01-20T01:18:25.499Z,90.80
2019-01-20T01:20:55.691Z,90.30
2019-01-20T01:23:25.893Z,90.20
2019-01-20T01:25:56.542Z,90.20
2019-01-20T01:28:27.082Z,90.40
2019-01-20T01:30:57.695Z,90.30
2019-01-20T01:33:28.022Z,90.00
2019-01-20T01:35:58.603Z,90.10
2019-01-20T01:38:28.807Z,90.30
2019-01-20T01:40:59.002Z,90.40
2019-01-20T01:43:29.535Z,90.50
2019-01-20T01:46:00.223Z,90.50
2019-01-20T01:48:30.708Z,90.50
2019-01-20T01:51:01.043Z,90.40
2019-01-20T01:53:31.565Z,90.30
2019-01-20T01:56:01.933Z,90.10
2019-01-20T01:58:32.487Z,90.00
2019-01-20T02:01:02.799Z,90.00
2019-01-20T02:03:33.282Z,89.90
2019-01-20T02:06:03.659Z,89.90
2019-01-20T02:08:33.877Z,90.00
2019-01-20T02:11:04.691Z,89.80
2019-01-20T02:13:35.191Z,89.30
2019-01-20T02:16:05.851Z,89.50
2019-01-20T02:18:36.445Z,89.10
2019-01-20T02:21:06.937Z,87.90
2019-01-20T02:23:37.273Z,87.90
2019-01-20T02:26:07.499Z,87.90
2019-01-20T02:28:37.793Z,87.70
2019-01-20T02:31:08.433Z,87.40
2019-01-20T02:33:39.062Z,87.60
2019-01-20T02:36:09.667Z,87.70
2019-01-20T02:38:40.352Z,87.30
2019-01-20T02:41:10.845Z,85.70
2019-01-20T02:43:41.319Z,86.90
2019-01-20T02:46:11.791Z,86.60
2019-01-20T02:48:42.069Z,86.70
2019-01-20T02:51:12.675Z,86.50
2019-01-20T02:53:43.321Z,86.20
2019-01-20T02:56:13.819Z,86.40
2019-01-20T02:58:44.113Z,85.60
2019-01-20T03:01:14.762Z,85.50
2019-01-20T03:03:45.343Z,86.00
2019-01-20T03:06:15.965Z,85.60
2019-01-20T03:08:46.507Z,85.60
2019-01-20T03:11:35.687Z,85.50
2019-01-20T03:14:06.519Z,85.00
2019-01-20T03:16:37.140Z,84.80
2019-01-20T03:19:07.379Z,84.60
2019-01-20T03:21:37.563Z,84.80
2019-01-20T03:24:08.107Z,84.20
2019-01-20T03:26:38.377Z,85.30
2019-01-20T03:29:08.601Z,85.50
2019-01-20T03:31:38.824Z,86.20
2019-01-20T03:34:08.337Z,86.50
2019-01-20T03:36:38.843Z,86.60
2019-01-20T03:39:09.097Z,86.90
2019-01-20T03:41:39.321Z,85.70
2019-01-20T03:44:09.920Z,85.70
2019-01-20T03:46:40.546Z,86.20
2019-01-20T03:49:11.087Z,87.40
2019-01-20T03:51:41.345Z,88.30
2019-01-20T03:54:11.991Z,88.50
2019-01-20T03:56:42.097Z,88.60
2019-01-20T03:59:12.277Z,87.80
2019-01-20T04:01:42.643Z,87.80
2019-01-20T04:04:12.870Z,88.00
2019-01-20T04:06:43.384Z,88.10
2019-01-20T04:09:13.576Z,87.70
2019-01-20T04:11:45.903Z,87.90
2019-01-20T04:14:16.406Z,88.00
2019-01-20T04:16:47.059Z,87.30
2019-01-20T04:19:17.284Z,87.80
2019-01-20T04:21:47.799Z,87.40
2019-01-20T04:24:18.299Z,88.20
2019-01-20T04:26:48.865Z,88.50
2019-01-20T04:29:19.104Z,88.60
2019-01-20T04:31:49.604Z,88.90
2019-01-20T04:34:19.868Z,89.10
2019-01-20T04:36:50.190Z,89.70
2019-01-20T04:39:20.773Z,89.90
2019-01-20T04:41:51.432Z,90.10
2019-01-20T04:44:21.943Z,90.20
2019-01-20T04:46:52.474Z,90.20
2019-01-20T04:49:23.017Z,90.40
2019-01-20T04:51:53.278Z,90.40
2019-01-20T04:54:23.878Z,90.40
2019-01-20T04:56:54.419Z,90.40
2019-01-20T04:59:25.048Z,90.40
2019-01-20T05:01:55.559Z,90.40
2019-01-20T05:04:26.167Z,90.50
2019-01-20T05:06:56.672Z,90.60
2019-01-20T05:09:26.897Z,90.60
2019-01-20T05:11:57.477Z,90.60
2019-01-20T05:14:27.742Z,90.60
2019-01-20T05:16:58.047Z,90.60
2019-01-20T05:19:28.612Z,90.60
2019-01-20T05:21:59.095Z,90.80
2019-01-20T05:24:29.569Z,90.70
2019-01-20T05:27:00.063Z,90.70
2019-01-20T05:29:30.343Z,90.60
2019-01-20T05:32:00.628Z,90.60
2019-01-20T05:34:31.257Z,90.60
2019-01-20T05:37:01.864Z,90.80
2019-01-20T05:39:32.431Z,90.90
2019-01-20T05:42:02.677Z,91.00
2019-01-20T05:44:33.311Z,91.00
2019-01-20T05:47:03.133Z,91.00
2019-01-20T05:49:33.651Z,91.00
2019-01-20T05:52:04.139Z,91.10
2019-01-20T05:54:34.691Z,91.10
2019-01-20T05:57:05.347Z,91.10
2019-01-20T05:59:35.290Z,91.10
2019-01-20T06:02:06.020Z,90.90
2019-01-20T06:04:36.503Z,91.00
2019-01-20T06:07:06.761Z,91.10
2019-01-20T06:09:37.265Z,91.10
2019-01-20T06:12:07.835Z,91.00
2019-01-20T06:14:38.355Z,91.20
2019-01-20T06:17:08.439Z,91.20
2019-01-20T06:19:39.013Z,91.40
2019-01-20T06:22:09.493Z,91.40
2019-01-20T06:24:40.631Z,91.50
2019-01-20T06:27:29.857Z,91.40
2019-01-20T06:30:00.533Z,91.40
2019-01-20T06:32:30.799Z,91.30
2019-01-20T06:35:01.399Z,91.30
2019-01-20T06:37:31.961Z,91.30
2019-01-20T06:40:02.560Z,91.30
2019-01-20T06:42:33.219Z,91.30
2019-01-20T06:45:03.063Z,91.50
2019-01-20T06:47:33.701Z,91.00
2019-01-20T06:50:04.795Z,90.90
2019-01-20T06:52:35.441Z,91.00
2019-01-20T06:55:06.265Z,91.40
2019-01-20T06:57:36.799Z,91.30
2019-01-20T07:00:09.855Z,91.20
2019-01-20T07:02:40.018Z,91.70
2019-01-20T07:05:10.491Z,91.20
2019-01-20T07:07:40.715Z,91.20
2019-01-20T07:10:11.303Z,91.00
2019-01-20T07:12:41.838Z,91.10
2019-01-20T07:15:15.065Z,91.10
2019-01-20T07:17:45.337Z,90.80
2019-01-20T07:20:16.263Z,90.80
2019-01-20T07:22:46.463Z,90.80
2019-01-20T07:25:16.781Z,91.00
2019-01-20T07:27:47.454Z,91.20
2019-01-20T07:30:19.597Z,91.20
2019-01-20T07:32:50.361Z,91.30
2019-01-20T07:35:21.119Z,91.10
2019-01-20T07:37:52.147Z,91.20
2019-01-20T07:40:24.232Z,91.00
2019-01-20T07:42:54.207Z,90.80
2019-01-20T07:45:24.888Z,91.00
2019-01-20T07:47:55.160Z,91.00
2019-01-20T07:50:27.174Z,91.10
2019-01-20T07:52:57.419Z,91.20
2019-01-20T07:55:27.649Z,91.40
2019-01-20T07:57:58.002Z,91.10
2019-01-20T08:00:28.515Z,91.10
2019-01-20T08:02:58.763Z,91.20
2019-01-20T08:05:29.413Z,91.20
2019-01-20T08:08:00.015Z,90.80
2019-01-20T08:10:31.422Z,90.80
2019-01-20T08:13:02.082Z,91.00
2019-01-20T08:15:32.297Z,91.10
2019-01-20T08:18:02.264Z,91.30
2019-01-20T08:20:32.868Z,91.30
2019-01-20T08:23:03.503Z,91.10
2019-01-20T08:25:33.849Z,91.30
2019-01-20T08:28:04.429Z,91.10
2019-01-20T08:30:34.597Z,91.00
2019-01-20T08:33:04.529Z,90.80
2019-01-20T08:35:35.027Z,90.80
2019-01-20T08:38:05.466Z,90.90
2019-01-20T08:40:35.314Z,90.70
2019-01-20T08:43:05.731Z,90.90
2019-01-20T08:45:58.461Z,90.90
2019-01-20T08:48:28.770Z,90.90
2019-01-20T08:50:59.219Z,91.00
2019-01-20T08:53:29.046Z,91.00
2019-01-20T08:55:59.556Z,90.90
2019-01-20T08:58:30.053Z,91.20
2019-01-20T09:01:00.719Z,90.90
2019-01-20T09:03:31.293Z,90.90
2019-01-20T09:06:01.857Z,91.10
2019-01-20T09:08:32.205Z,91.20
2019-01-20T09:11:02.841Z,91.20
2019-01-20T09:13:39.689Z,90.90
2019-01-20T09:16:05.763Z,91.20
2019-01-20T09:18:36.067Z,91.20
2019-01-20T09:21:07.556Z,91.20
2019-01-20T09:23:38.221Z,90.90
2019-01-20T09:26:08.519Z,90.90
2019-01-20T09:28:38.336Z,90.90
2019-01-20T09:31:30.098Z,90.90
2019-01-20T09:34:00.072Z,90.70
2019-01-20T09:36:30.034Z,90.80
2019-01-20T09:39:01.294Z,90.70
2019-01-20T09:41:31.977Z,90.80
2019-01-20T09:44:02.636Z,91.00
2019-01-20T09:46:33.225Z,91.00
2019-01-20T09:49:03.864Z,91.00
2019-01-20T09:51:34.562Z,91.00
2019-01-20T09:54:05.163Z,91.00
2019-01-20T09:56:35.799Z,91.00
2019-01-20T09:59:06.557Z,90.80
2019-01-20T10:01:37.027Z,90.40
2019-01-20T10:04:07.745Z,90.50
2019-01-20T10:06:38.181Z,90.50
2019-01-20T10:09:09.926Z,90.50
2019-01-20T10:11:40.695Z,90.40
2019-01-20T10:14:11.594Z,90.40
2019-01-20T10:16:42.363Z,90.30
2019-01-20T10:19:12.845Z,90.20
2019-01-20T10:21:43.412Z,90.20
2019-01-20T10:24:13.832Z,89.80
2019-01-20T10:26:45.145Z,90.40
2019-01-20T10:29:31.671Z,90.50
2019-01-20T10:32:02.483Z,90.80
2019-01-20T10:34:33.656Z,90.70
2019-01-20T10:37:14.760Z,91.00
2019-01-20T10:39:49.664Z,90.90
2019-01-20T10:42:41.246Z,91.00
2019-01-20T10:45:12.693Z,91.00
2019-01-20T10:47:43.337Z,90.80
2019-01-20T10:50:14.048Z,91.20
2019-01-20T10:52:44.821Z,91.30
2019-01-20T10:55:15.435Z,91.50
2019-01-20T10:57:46.123Z,91.30
2019-01-20T11:00:22.713Z,91.40
2019-01-20T11:02:53.579Z,91.40
2019-01-20T11:05:25.046Z,91.60
2019-01-20T11:07:56.621Z,91.70
2019-01-20T11:10:27.263Z,91.50
2019-01-20T11:12:58.189Z,91.30
2019-01-20T11:15:29.859Z,91.30
2019-01-20T11:18:00.439Z,91.30
2019-01-20T11:20:30.099Z,91.30
2019-01-20T11:23:00.742Z,91.50
2019-01-20T11:25:33.904Z,91.10
2019-01-20T11:28:04.668Z,91.20
2019-01-20T11:30:35.638Z,91.20
2019-01-20T11:33:06.626Z,91.20
2019-01-20T11:35:37.365Z,91.20
2019-01-20T11:38:09.421Z,91.20
2019-01-20T11:40:59.191Z,90.90
2019-01-20T11:43:29.707Z,91.00
2019-01-20T11:46:00.416Z,91.00
2019-01-20T11:48:30.610Z,91.00
2019-01-20T11:51:00.952Z,90.80
2019-01-20T11:53:31.393Z,90.80
2019-01-20T11:56:01.631Z,90.80
2019-01-20T11:58:32.079Z,90.90
2019-01-20T12:01:02.758Z,90.90
2019-01-20T12:03:33.313Z,90.90
2019-01-20T12:06:03.791Z,90.60
2019-01-20T12:08:34.447Z,90.70
2019-01-20T12:11:05.069Z,90.50
2019-01-20T12:13:35.793Z,90.10
2019-01-20T12:16:06.206Z,90.30
2019-01-20T12:18:36.187Z,90.30
2019-01-20T12:21:06.157Z,90.40
2019-01-20T12:23:36.717Z,90.60
2019-01-20T12:26:07.332Z,90.60
2019-01-20T12:28:38.052Z,90.70
2019-01-20T12:31:08.339Z,90.80
2019-01-20T12:33:38.867Z,90.90
2019-01-20T12:36:08.960Z,90.90
2019-01-20T12:38:39.320Z,91.00
2019-01-20T12:41:10.354Z,90.80
2019-01-20T12:43:40.388Z,90.80
2019-01-20T12:46:11.117Z,90.90
2019-01-20T12:48:41.431Z,90.80
2019-01-20T12:51:12.505Z,90.80
2019-01-20T12:53:43.111Z,90.80
2019-01-20T12:56:13.641Z,90.70
2019-01-20T12:58:44.226Z,90.90
2019-01-20T13:01:14.577Z,90.90
2019-01-20T13:03:44.944Z,91.00
2019-01-20T13:06:15.678Z,91.00
2019-01-20T13:08:46.147Z,90.80
2019-01-20T13:11:16.802Z,90.70
2019-01-20T13:13:47.491Z,91.10
2019-01-20T13:16:18.048Z,91.30
2019-01-20T13:18:48.728Z,91.20
2019-01-20T13:21:20.227Z,91.30
2019-01-20T13:23:50.875Z,91.20
2019-01-20T13:26:21.371Z,91.20
2019-01-20T13:28:51.912Z,91.60
2019-01-20T13:31:22.115Z,91.00
2019-01-20T13:33:52.640Z,91.00
2019-01-20T13:36:23.198Z,90.90
2019-01-20T13:38:53.733Z,91.00
2019-01-20T13:41:29.227Z,90.90
2019-01-20T13:43:59.940Z,91.20
2019-01-20T13:46:30.671Z,91.20
2019-01-20T13:49:01.319Z,91.20
2019-01-20T13:51:31.590Z,91.10
2019-01-20T13:54:02.168Z,91.30
2019-01-20T13:56:32.703Z,91.30
2019-01-20T13:59:03.469Z,91.20
2019-01-20T14:01:33.983Z,91.10
2019-01-20T14:04:04.239Z,90.90
2019-01-20T14:06:34.904Z,91.00
2019-01-20T14:09:08.906Z,91.00
2019-01-20T14:11:39.531Z,91.00
2019-01-20T14:14:10.147Z,91.00
2019-01-20T14:16:40.818Z,91.00
2019-01-20T14:19:11.393Z,91.00
2019-01-20T14:21:41.938Z,91.00
2019-01-20T14:24:12.294Z,90.90
2019-01-20T14:26:42.632Z,91.00
2019-01-20T14:29:12.814Z,91.00
2019-01-20T14:31:43.081Z,91.00
2019-01-20T14:34:13.596Z,91.20
2019-01-20T14:36:44.150Z,91.20
2019-01-20T14:39:14.462Z,91.30
2019-01-20T14:41:44.379Z,91.30
2019-01-20T14:44:14.549Z,91.40
2019-01-20T14:46:46.278Z,91.30
2019-01-20T14:49:16.787Z,91.30
2019-01-20T14:51:49.369Z,91.40
2019-01-20T14:54:20.114Z,91.40
2019-01-20T14:56:50.337Z,91.50
2019-01-20T14:59:20.554Z,91.50
2019-01-20T15:01:50.471Z,91.60
2019-01-20T15:04:20.972Z,91.60
2019-01-20T15:06:51.540Z,91.70
2019-01-20T15:09:22.119Z,91.60
2019-01-20T15:11:52.721Z,91.50
2019-01-20T15:14:23.294Z,91.60
2019-01-20T15:16:53.670Z,91.60
2019-01-20T15:19:23.857Z,92.00
2019-01-20T15:21:54.123Z,91.80
2019-01-20T15:24:25.105Z,91.80
2019-01-20T15:26:55.431Z,91.80
2019-01-20T15:29:25.857Z,91.90
2019-01-20T15:31:56.413Z,91.80
2019-01-20T15:34:26.952Z,91.80
2019-01-20T15:36:58.822Z,91.90
2019-01-20T15:39:29.399Z,91.90
2019-01-20T15:41:59.591Z,91.80
2019-01-20T15:44:30.068Z,92.00
2019-01-20T15:47:00.394Z,92.00
2019-01-20T15:49:30.664Z,92.10
2019-01-20T15:52:01.310Z,92.00
2019-01-20T15:54:31.436Z,92.00
2019-01-20T15:57:01.993Z,92.10
2019-01-20T15:59:32.493Z,92.00
2019-01-20T16:02:03.074Z,92.00
2019-01-20T16:04:33.522Z,92.00
2019-01-20T16:07:04.165Z,92.00
2019-01-20T16:09:34.446Z,92.00
2019-01-20T16:12:04.350Z,92.00
2019-01-20T16:14:34.900Z,92.00
2019-01-20T16:17:05.550Z,92.10
2019-01-20T16:19:36.114Z,92.10
2019-01-20T16:22:06.464Z,92.30
2019-01-20T16:24:55.312Z,92.00
2019-01-20T16:27:26.051Z,92.00
2019-01-20T16:29:58.143Z,92.10
2019-01-20T16:32:28.747Z,92.10
2019-01-20T16:34:59.313Z,92.10
2019-01-20T16:37:29.470Z,92.00
2019-01-20T16:39:59.434Z,92.10
2019-01-20T16:42:29.688Z,92.10
2019-01-20T16:45:00.282Z,92.20
2019-01-20T16:47:30.886Z,92.30
2019-01-20T16:50:01.643Z,92.30
2019-01-20T16:52:32.226Z,92.30
2019-01-20T16:55:02.526Z,92.30
2019-01-20T16:57:32.776Z,92.20
2019-01-20T17:00:03.400Z,92.30
2019-01-20T17:02:34.037Z,92.30
2019-01-20T17:05:05.190Z,92.40
2019-01-20T17:07:35.701Z,92.40
2019-01-20T17:10:08.216Z,92.40
2019-01-20T17:12:38.853Z,92.60
2019-01-20T17:15:11.580Z,92.90
2019-01-20T17:17:41.864Z,92.50
2019-01-20T17:20:11.823Z,92.50
2019-01-20T17:22:41.768Z,92.50
2019-01-20T17:25:12.611Z,92.50
2019-01-20T17:27:43.086Z,92.50
2019-01-20T17:30:16.071Z,92.50
2019-01-20T17:32:46.630Z,92.50
2019-01-20T17:35:16.921Z,92.30
2019-01-20T17:37:46.982Z,92.20
2019-01-20T17:40:24.547Z,92.20
2019-01-20T17:42:55.092Z,92.10
2019-01-20T17:45:27.342Z,92.10
2019-01-20T17:47:57.641Z,92.10
2019-01-20T17:50:33.048Z,92.10
2019-01-20T17:53:04.108Z,92.20
2019-01-20T17:55:34.541Z,92.30
2019-01-20T17:58:05.377Z,92.30
2019-01-20T18:00:38.962Z,92.40
2019-01-20T18:03:09.901Z,92.50
2019-01-20T18:05:40.572Z,92.50
2019-01-20T18:08:11.124Z,92.40
2019-01-20T18:10:41.409Z,92.50
2019-01-20T18:13:11.775Z,92.40
2019-01-20T18:15:42.620Z,92.30
2019-01-20T18:18:13.288Z,92.80
2019-01-20T18:20:43.923Z,92.40
2019-01-20T18:23:14.150Z,92.30
2019-01-20T18:25:43.806Z,92.20
2019-01-20T18:28:14.450Z,92.30
2019-01-20T18:30:44.522Z,92.30
2019-01-20T18:33:15.269Z,92.40
2019-01-20T18:35:45.483Z,92.20
2019-01-20T18:38:16.111Z,92.20
2019-01-20T18:40:46.372Z,92.10
2019-01-20T18:43:16.799Z,92.10
2019-01-20T18:45:47.286Z,92.10
2019-01-20T18:48:17.790Z,92.00
2019-01-20T18:50:48.154Z,91.90
2019-01-20T18:53:18.738Z,92.10
2019-01-20T18:55:49.012Z,91.90
2019-01-20T18:58:19.774Z,91.90
2019-01-20T19:00:52.130Z,91.90
2019-01-20T19:03:22.660Z,91.90
2019-01-20T19:05:53.315Z,91.60
2019-01-20T19:08:23.578Z,91.80
2019-01-20T19:10:53.440Z,91.80
2019-01-20T19:13:24.263Z,91.70
2019-01-20T19:15:55.358Z,91.60
2019-01-20T19:18:25.552Z,91.60
2019-01-20T19:20:56.526Z,91.60
2019-01-20T19:23:27.582Z,91.70
2019-01-20T19:25:58.054Z,91.80
2019-01-20T19:28:28.639Z,91.60
2019-01-20T19:30:59.256Z,91.60
2019-01-20T19:33:30.164Z,91.60
2019-01-20T19:36:00.366Z,91.60
2019-01-20T19:38:30.882Z,91.60
2019-01-20T19:41:01.563Z,91.60
2019-01-20T19:43:31.950Z,91.70
2019-01-20T19:46:02.719Z,91.60
2019-01-20T19:48:33.314Z,91.60
2019-01-20T19:51:03.654Z,91.70
2019-01-20T19:53:34.069Z,91.90
2019-01-20T19:56:04.440Z,91.80
2019-01-20T19:58:34.991Z,92.00
2019-01-20T20:01:05.238Z,91.90
2019-01-20T20:03:42.038Z,91.90
2019-01-20T20:06:12.898Z,91.90
2019-01-20T20:08:43.184Z,91.90
2019-01-20T20:11:13.993Z,92.00
2019-01-20T20:13:44.733Z,91.90
2019-01-20T20:16:15.350Z,92.00
2019-01-20T20:18:45.544Z,92.20
2019-01-20T20:21:15.824Z,91.80
2019-01-20T20:24:04.768Z,92.20
2019-01-20T20:26:35.112Z,91.70
2019-01-20T20:29:05.948Z,92.00
2019-01-20T20:31:36.606Z,91.90
2019-01-20T20:34:06.468Z,92.10
2019-01-20T20:36:37.108Z,92.20
2019-01-20T20:39:10.071Z,92.10
2019-01-20T20:41:40.698Z,92.10
2019-01-20T20:44:10.930Z,92.00
2019-01-20T20:46:40.906Z,92.00
2019-01-20T20:49:11.448Z,92.10
2019-01-20T20:51:41.653Z,92.00
2019-01-20T20:54:12.256Z,92.00
2019-01-20T20:56:42.494Z,91.90
2019-01-20T20:59:13.225Z,92.00
2019-01-20T21:01:43.730Z,91.80
2019-01-20T21:04:14.383Z,92.00
2019-01-20T21:06:44.904Z,92.10
2019-01-20T21:09:15.503Z,92.00
2019-01-20T21:11:45.779Z,91.90
2019-01-20T21:14:16.284Z,91.90
2019-01-20T21:16:46.236Z,92.00
2019-01-20T21:19:16.450Z,92.10
2019-01-20T21:21:47.106Z,92.20
2019-01-20T21:24:17.624Z,92.00
2019-01-20T21:26:47.958Z,92.20
2019-01-20T21:29:18.319Z,92.10
2019-01-20T21:31:49.026Z,92.40
2019-01-20T21:34:38.358Z,92.90
2019-01-20T21:37:08.711Z,92.50
2019-01-20T21:39:39.190Z,92.60
2019-01-20T21:42:09.756Z,92.50
2019-01-20T21:44:40.095Z,92.40
2019-01-20T21:47:10.646Z,92.20
2019-01-20T21:49:41.154Z,92.20
2019-01-20T21:52:11.658Z,92.20
2019-01-20T21:54:41.494Z,92.00
2019-01-20T21:57:12.156Z,92.00
2019-01-20T21:59:42.458Z,91.90
2019-01-20T22:02:12.348Z,92.00
2019-01-20T22:04:42.602Z,91.90
2019-01-20T22:07:13.143Z,91.80
2019-01-20T22:09:43.624Z,91.80
2019-01-20T22:12:14.154Z,91.90
2019-01-20T22:14:44.746Z,92.10
2019-01-20T22:17:14.890Z,92.00
2019-01-20T22:19:45.543Z,92.10
2019-01-20T22:22:15.853Z,92.20
2019-01-20T22:24:46.412Z,91.90
2019-01-20T22:27:17.032Z,91.60
2019-01-20T22:29:47.702Z,91.70
2019-01-20T22:32:17.633Z,91.70
2019-01-20T22:34:47.930Z,91.90
2019-01-20T22:37:18.607Z,91.80
2019-01-20T22:39:49.239Z,91.80
2019-01-20T22:42:19.448Z,91.70
2019-01-20T22:44:49.667Z,91.60
2019-01-20T22:47:20.006Z,91.50
2019-01-20T22:49:50.024Z,91.40
2019-01-20T22:52:20.622Z,91.50
2019-01-20T22:54:51.263Z,91.60
2019-01-20T22:57:21.646Z,91.40
2019-01-20T22:59:51.534Z,91.50
2019-01-20T23:02:21.860Z,91.60
2019-01-20T23:04:52.484Z,91.60
2019-01-20T23:07:24.046Z,91.60
2019-01-20T23:09:54.553Z,92.00
2019-01-20T23:12:24.910Z,91.80
2019-01-20T23:14:55.449Z,91.90
2019-01-20T23:17:25.640Z,91.80
2019-01-20T23:19:56.239Z,91.70
2019-01-20T23:22:45.455Z,91.50
2019-01-20T23:25:15.688Z,91.70
2019-01-20T23:27:46.469Z,91.80
2019-01-20T23:30:17.040Z,91.30
2019-01-20T23:32:47.374Z,91.40
2019-01-20T23:35:18.070Z,91.30
2019-01-20T23:37:48.504Z,91.20
2019-01-20T23:40:19.292Z,91.00
2019-01-20T23:42:49.510Z,91.30
2019-01-20T23:45:19.687Z,91.50
2019-01-20T23:47:50.067Z,91.40
2019-01-20T23:50:20.810Z,91.60
2019-01-20T23:52:51.271Z,91.60
2019-01-20T23:55:21.888Z,91.20
2019-01-20T23:57:52.343Z,91.30
